sensor_id;sensor_type;location;lat;lon;timestamp;P1;durP1;ratioP1;P2;durP2;ratioP2
77278;SDS011;66332;50.436;15.378;2023-05-10T04:01:18;6.47;;;2.55;;
77278;SDS011;66332;50.436;15.378;2023-05-10T04:06:00;6.35;;;2.30;;
77278;SDS011;66332;50.436;15.378;2023-05-10T04:10:41;6.45;;;2.42;;
77278;SDS011;66332;50.436;15.378;2023-05-10T04:15:22;7.25;;;2.35;;
77278;SDS011;66332;50.436;15.378;2023-05-10T04:20:03;6.88;;;2.50;;
77278;SDS011;66332;50.436;15.378;2023-05-10T04:24:45;7.70;;;2.40;;
77278;SDS011;66332;50.436;15.378;2023-05-10T04:29:26;9.15;;;2.70;;
77278;SDS011;66332;50.436;15.378;2023-05-10T04:34:07;5.90;;;2.60;;
77278;SDS011;66332;50.436;15.378;2023-05-10T04:38:48;6.63;;;2.30;;
77278;SDS011;66332;50.436;15.378;2023-05-10T04:43:29;6.68;;;2.30;;
77278;SDS011;66332;50.436;15.378;2023-05-10T04:48:10;5.90;;;2.50;;
77278;SDS011;66332;50.436;15.378;2023-05-10T04:52:51;6.35;;;2.40;;
77278;SDS011;66332;50.436;15.378;2023-05-10T04:57:32;5.88;;;2.33;;
77278;SDS011;66332;50.436;15.378;2023-05-10T05:02:13;6.03;;;2.28;;
77278;SDS011;66332;50.436;15.378;2023-05-10T05:06:53;5.80;;;2.33;;
77278;SDS011;66332;50.436;15.378;2023-05-10T05:11:34;6.35;;;2.25;;
77278;SDS011;66332;50.436;15.378;2023-05-10T05:16:15;6.97;;;2.40;;
77278;SDS011;66332;50.436;15.378;2023-05-10T05:20:56;5.95;;;2.45;;
77278;SDS011;66332;50.436;15.378;2023-05-10T05:25:37;6.82;;;2.30;;
77278;SDS011;66332;50.436;15.378;2023-05-10T05:30:20;7.78;;;2.22;;
77278;SDS011;66332;50.436;15.378;2023-05-10T05:35:04;5.30;;;2.30;;
77278;SDS011;66332;50.436;15.378;2023-05-10T05:39:45;6.30;;;2.53;;
77278;SDS011;66332;50.436;15.378;2023-05-10T05:49:09;6.25;;;2.25;;
77278;SDS011;66332;50.436;15.378;2023-05-10T05:53:50;6.07;;;2.53;;
77278;SDS011;66332;50.436;15.378;2023-05-10T05:58:37;5.20;;;2.15;;
77278;SDS011;66332;50.436;15.378;2023-05-10T06:03:29;6.55;;;2.50;;
77278;SDS011;66332;50.436;15.378;2023-05-10T06:08:23;7.32;;;2.42;;
77278;SDS011;66332;50.436;15.378;2023-05-10T06:13:07;5.57;;;2.40;;
77278;SDS011;66332;50.436;15.378;2023-05-10T06:17:56;6.57;;;2.80;;
77278;SDS011;66332;50.436;15.378;2023-05-10T06:22:38;6.20;;;2.47;;
77278;SDS011;66332;50.436;15.378;2023-05-10T06:27:20;6.45;;;2.78;;
77278;SDS011;66332;50.436;15.378;2023-05-10T06:32:00;6.25;;;2.63;;
77278;SDS011;66332;50.436;15.378;2023-05-10T06:36:44;5.90;;;2.80;;
77278;SDS011;66332;50.436;15.378;2023-05-10T06:41:25;6.45;;;2.58;;
77278;SDS011;66332;50.436;15.378;2023-05-10T06:46:12;7.68;;;3.10;;
77278;SDS011;66332;50.436;15.378;2023-05-10T06:50:53;8.57;;;3.40;;
77278;SDS011;66332;50.436;15.378;2023-05-10T06:55:39;5.80;;;2.53;;
77278;SDS011;66332;50.436;15.378;2023-05-10T07:00:23;8.05;;;2.55;;
77278;SDS011;66332;50.436;15.378;2023-05-10T07:05:07;6.40;;;2.90;;
77278;SDS011;66332;50.436;15.378;2023-05-10T07:09:49;7.82;;;2.67;;
77278;SDS011;66332;50.436;15.378;2023-05-10T07:14:42;6.43;;;2.85;;
77278;SDS011;66332;50.436;15.378;2023-05-10T07:19:26;7.25;;;3.15;;
77278;SDS011;66332;50.436;15.378;2023-05-10T07:24:07;6.68;;;2.90;;
77278;SDS011;66332;50.436;15.378;2023-05-10T07:28:48;6.15;;;2.72;;
77278;SDS011;66332;50.436;15.378;2023-05-10T07:33:29;6.13;;;2.90;;
77278;SDS011;66332;50.436;15.378;2023-05-10T07:38:10;8.10;;;2.80;;
77278;SDS011;66332;50.436;15.378;2023-05-10T07:42:51;6.72;;;2.85;;
77278;SDS011;66332;50.436;15.378;2023-05-10T07:47:32;6.93;;;2.88;;
77278;SDS011;66332;50.436;15.378;2023-05-10T07:52:16;6.20;;;3.00;;
77278;SDS011;66332;50.436;15.378;2023-05-10T07:56:57;6.53;;;2.40;;
77278;SDS011;66332;50.436;15.378;2023-05-10T08:01:40;7.10;;;2.97;;
77278;SDS011;66332;50.436;15.378;2023-05-10T08:06:21;6.50;;;2.65;;
77278;SDS011;66332;50.436;15.378;2023-05-10T08:11:03;6.70;;;2.90;;
77278;SDS011;66332;50.436;15.378;2023-05-10T08:15:44;6.68;;;2.92;;
77278;SDS011;66332;50.436;15.378;2023-05-10T08:20:25;6.72;;;2.95;;
77278;SDS011;66332;50.436;15.378;2023-05-10T08:25:09;8.90;;;3.97;;
77278;SDS011;66332;50.436;15.378;2023-05-10T08:29:50;7.10;;;2.80;;
77278;SDS011;66332;50.436;15.378;2023-05-10T08:34:33;7.25;;;2.80;;
77278;SDS011;66332;50.436;15.378;2023-05-10T08:39:17;7.50;;;2.95;;
77278;SDS011;66332;50.436;15.378;2023-05-10T08:43:58;7.20;;;2.80;;
77278;SDS011;66332;50.436;15.378;2023-05-10T08:48:44;7.05;;;2.92;;
77278;SDS011;66332;50.436;15.378;2023-05-10T08:53:28;9.38;;;2.97;;
77278;SDS011;66332;50.436;15.378;2023-05-10T08:58:11;6.22;;;2.85;;
77278;SDS011;66332;50.436;15.378;2023-05-10T09:02:52;6.63;;;2.47;;
77278;SDS011;66332;50.436;15.378;2023-05-10T09:07:34;6.80;;;2.95;;
77278;SDS011;66332;50.436;15.378;2023-05-10T09:12:15;8.15;;;2.65;;
77278;SDS011;66332;50.436;15.378;2023-05-10T09:16:56;6.82;;;2.63;;
77278;SDS011;66332;50.436;15.378;2023-05-10T09:21:38;6.07;;;2.45;;
77278;SDS011;66332;50.436;15.378;2023-05-10T09:26:21;6.68;;;2.70;;
77278;SDS011;66332;50.436;15.378;2023-05-10T09:31:03;6.30;;;2.60;;
77278;SDS011;66332;50.436;15.378;2023-05-10T09:35:44;6.43;;;2.60;;
77278;SDS011;66332;50.436;15.378;2023-05-10T09:40:28;9.65;;;2.65;;
77278;SDS011;66332;50.436;15.378;2023-05-10T09:45:10;7.75;;;2.97;;
77278;SDS011;66332;50.436;15.378;2023-05-10T09:49:53;7.47;;;2.85;;
77278;SDS011;66332;50.436;15.378;2023-05-10T09:54:36;8.15;;;3.15;;
77278;SDS011;66332;50.436;15.378;2023-05-10T09:59:17;8.18;;;2.80;;
77278;SDS011;66332;50.436;15.378;2023-05-10T10:03:58;6.88;;;2.95;;
77278;SDS011;66332;50.436;15.378;2023-05-10T10:08:39;5.57;;;2.85;;
77278;SDS011;66332;50.436;15.378;2023-05-10T10:13:20;7.65;;;2.97;;
77278;SDS011;66332;50.436;15.378;2023-05-10T10:18:01;8.50;;;3.00;;
77278;SDS011;66332;50.436;15.378;2023-05-10T10:22:44;6.97;;;2.70;;
77278;SDS011;66332;50.436;15.378;2023-05-10T10:32:30;7.18;;;2.70;;
77278;SDS011;66332;50.436;15.378;2023-05-10T10:37:45;6.30;;;2.92;;
77278;SDS011;66332;50.436;15.378;2023-05-10T10:42:46;7.53;;;3.28;;
77278;SDS011;66332;50.436;15.378;2023-05-10T10:47:28;6.18;;;2.97;;
77278;SDS011;66332;50.436;15.378;2023-05-10T10:57:14;8.18;;;3.20;;
77278;SDS011;66332;50.436;15.378;2023-05-10T11:01:55;7.43;;;3.33;;
77278;SDS011;66332;50.436;15.378;2023-05-10T11:06:36;6.32;;;2.83;;
77278;SDS011;66332;50.436;15.378;2023-05-10T11:11:17;7.45;;;2.90;;
77278;SDS011;66332;50.436;15.378;2023-05-10T11:15:58;7.90;;;3.15;;
77278;SDS011;66332;50.436;15.378;2023-05-10T11:20:56;7.30;;;2.75;;
77278;SDS011;66332;50.436;15.378;2023-05-10T11:25:47;6.13;;;3.20;;
77278;SDS011;66332;50.436;15.378;2023-05-10T11:30:29;7.38;;;3.30;;
77278;SDS011;66332;50.436;15.378;2023-05-10T11:35:11;7.47;;;3.10;;
77278;SDS011;66332;50.436;15.378;2023-05-10T11:39:54;8.60;;;3.20;;
77278;SDS011;66332;50.436;15.378;2023-05-10T11:44:34;6.50;;;3.35;;
77278;SDS011;66332;50.436;15.378;2023-05-10T11:49:15;7.28;;;3.17;;
77278;SDS011;66332;50.436;15.378;2023-05-10T11:53:56;6.97;;;2.83;;
77278;SDS011;66332;50.436;15.378;2023-05-10T11:58:38;6.25;;;3.15;;
77278;SDS011;66332;50.436;15.378;2023-05-10T12:03:19;5.70;;;2.50;;
77278;SDS011;66332;50.436;15.378;2023-05-10T12:08:13;5.70;;;2.67;;
77278;SDS011;66332;50.436;15.378;2023-05-10T12:12:55;6.28;;;2.83;;
77278;SDS011;66332;50.436;15.378;2023-05-10T12:17:37;7.38;;;2.70;;
77278;SDS011;66332;50.436;15.378;2023-05-10T12:22:20;6.28;;;2.88;;
77278;SDS011;66332;50.436;15.378;2023-05-10T12:27:04;6.10;;;2.72;;
77278;SDS011;66332;50.436;15.378;2023-05-10T12:31:52;6.95;;;2.70;;
77278;SDS011;66332;50.436;15.378;2023-05-10T12:36:44;6.88;;;2.60;;
77278;SDS011;66332;50.436;15.378;2023-05-10T12:41:36;5.20;;;2.50;;
77278;SDS011;66332;50.436;15.378;2023-05-10T12:46:31;10.75;;;2.92;;
77278;SDS011;66332;50.436;15.378;2023-05-10T12:51:15;6.90;;;2.65;;
77278;SDS011;66332;50.436;15.378;2023-05-10T13:00:40;5.78;;;2.78;;
77278;SDS011;66332;50.436;15.378;2023-05-10T13:05:21;5.07;;;2.20;;
77278;SDS011;66332;50.436;15.378;2023-05-10T13:10:02;6.45;;;2.45;;
77278;SDS011;66332;50.436;15.378;2023-05-10T13:14:44;8.20;;;3.20;;
77278;SDS011;66332;50.436;15.378;2023-05-10T13:19:25;5.47;;;2.50;;
77278;SDS011;66332;50.436;15.378;2023-05-10T13:24:06;6.40;;;2.70;;
77278;SDS011;66332;50.436;15.378;2023-05-10T13:28:48;5.90;;;2.63;;
77278;SDS011;66332;50.436;15.378;2023-05-10T13:33:37;5.63;;;2.60;;
77278;SDS011;66332;50.436;15.378;2023-05-10T13:38:18;6.03;;;2.47;;
77278;SDS011;66332;50.436;15.378;2023-05-10T13:42:59;5.70;;;2.45;;
77278;SDS011;66332;50.436;15.378;2023-05-10T13:47:41;6.38;;;2.28;;
77278;SDS011;66332;50.436;15.378;2023-05-10T13:52:43;5.00;;;2.22;;
77278;SDS011;66332;50.436;15.378;2023-05-10T13:57:44;5.32;;;2.30;;
77278;SDS011;66332;50.436;15.378;2023-05-10T14:02:27;4.93;;;2.08;;
77278;SDS011;66332;50.436;15.378;2023-05-10T14:07:54;5.30;;;2.25;;
77278;SDS011;66332;50.436;15.378;2023-05-10T14:12:49;5.47;;;2.30;;
77278;SDS011;66332;50.436;15.378;2023-05-10T14:18:13;6.25;;;2.58;;
77278;SDS011;66332;50.436;15.378;2023-05-10T14:24:01;5.97;;;2.10;;
77278;SDS011;66332;50.436;15.378;2023-05-10T14:29:31;5.70;;;2.25;;
77278;SDS011;66332;50.436;15.378;2023-05-10T14:34:18;5.90;;;2.10;;
77278;SDS011;66332;50.436;15.378;2023-05-10T14:39:03;12.07;;;2.20;;
77278;SDS011;66332;50.436;15.378;2023-05-10T14:43:47;5.53;;;2.05;;
77278;SDS011;66332;50.436;15.378;2023-05-10T14:58:26;5.13;;;2.00;;
77278;SDS011;66332;50.436;15.378;2023-05-10T15:03:24;5.57;;;2.22;;
77278;SDS011;66332;50.436;15.378;2023-05-10T15:08:05;4.93;;;1.98;;
77278;SDS011;66332;50.436;15.378;2023-05-10T15:12:46;5.85;;;2.45;;
77278;SDS011;66332;50.436;15.378;2023-05-10T15:17:27;6.65;;;2.40;;
77278;SDS011;66332;50.436;15.378;2023-05-10T15:22:08;6.68;;;2.22;;
77278;SDS011;66332;50.436;15.378;2023-05-10T15:26:49;5.95;;;2.22;;
